Montreal / Pierre Elliott Trudeau International Airport

CYUL · Quebec, 加拿大

罗盘
风向 的 风向 220° 蒙特利尔皮埃尔·埃利奥特·特鲁多国际机场 6R/24L
风向 到 风: 16 kt, 阵阵 22 kt, 4 beaufort

15 kt

5 kt
改变
0 6.000 12.000 18.000 24.000 30.000
FEW 3.000 ft
BKN 25.000 ft
METAR CYUL 261800Z 22016G22KT 30SM FEW030 BKN250 06/00 A2978 RMK CF1CI6 CF TR SLP089

METAR 蒙特利尔皮埃尔·埃利奥特·特鲁多国际机场 - CYUL/YUL

蒙特利尔皮埃尔·埃利奥特·特鲁多国际机场是,加拿大中的大型机场。 该机场有3条跑道: 6R/24L, 6L/24R 和 10/28. 该领域的国际民航组织标志是CYUL 它的国际航空运输协会代码是YUL.

这份报告是针对2022年11月26日 13:00, 当地时间在蒙特利尔皮埃尔·埃利奥特·特鲁多国际机场进行的。

机场观察

风向为220°,速度为16 kt。 已测得22 kt的阵风。

可见度为30 mi。

有几云在3.000 ft的高度 和 碎云在25.000 ft的高度。 破损或更高的上限为25.000 ft。

温度为6 °C,阵风为0 °C。 海平面上的气压为29,78 inHg (QNH)。

白天

今天,太阳从07:08升起,在16:15降落。 这适用于蒙特利尔皮埃尔·埃利奥特·特鲁多国际机场,世界夏令时可能有所不同。 当地时间与世界标准时间之间的时差为-5 小时。 当前,没有夏令时有效。

公司介绍

我们没有关于这个机场的公司信息。

体会

到Vliegles.nl去找飞行课程,跳伞和其他飞行体验。 浏览页面,了解蒙特利尔皮埃尔·埃利奥特·特鲁多国际机场附近所有可用的活动。 你也可以使用搜索功能来寻找你所在地附近的特定飞行课程、跳伞或其他飞行体验。

跑道

Id 标题 侧风 逆风 侧风 %
6R/24L 057°-237° 5-6 kt 15-21 kt 29 %
6L/24R 057°-237° 5-6 kt 15-21 kt 29 %
10/28 102°-282° 14-19 kt 8-10 kt 88 %

逆风成分最大的方向会被突出显示,并用于横风计算。 这并不一定意味着这个方向在使用。

乌云

3.000 ft FEW 几云
25.000 ft BKN 碎云

温度 & 天气

温度 6 °C
露点 0 °C
相对湿度 66%
风寒 0 °C
Kp-index 1 (0-9)

评论

SLP089海平面压力为29,79 inHg (29,79 inHg)
CF1CI6 CF TR

白天

日出
07:08
中午
11:42
日落
16:15 (2:21)

小工具

你想在你的网站上有一个关于蒙特利尔皮埃尔·埃利奥特·特鲁多国际机场的当前航空天气(METAR)的小部件吗?

显示HTML代码

我们和第三方通过cookies跟踪您在我们网站上的互联网行为。如果你继续,我们认为你同意我们的饼干政策